PDT,Max TemperatureF,Mean TemperatureF,Min TemperatureF,Max Dew PointF,MeanDew PointF,Min DewpointF,Max Humidity, Mean Humidity, Min Humidity, Max Sea Level PressureIn, Mean Sea Level PressureIn, Min Sea Level PressureIn, Max VisibilityMiles, Mean VisibilityMiles, Min VisibilityMiles, Max Wind SpeedMPH, Mean Wind SpeedMPH, Max Gust SpeedMPH,PrecipitationIn, CloudCover, Events, WindDirDegrees
2013-7-1,91,70,50,50,44,36,82,50,14,30.32,30.25,30.22,10,10,10,21,3,29,0.00,1,,200
2013-7-2,91,71,51,54,48,39,82,58,16,30.36,30.32,30.25,10,10,3,15,4,23,0.00,1,Thunderstorm,156
2013-7-3,89,66,44,55,49,45,100,64,23,30.37,30.28,30.18,10,10,5,13,2,17,0.00,1,Thunderstorm,246
2013-7-4,86,67,48,54,49,46,94,63,27,30.24,30.15,30.07,10,10,10,21,3,24,0.00,1,,234
2013-7-5,84,63,42,48,39,28,93,53,15,30.08,30.03,29.99,10,10,10,21,4,30,0.00,0,,217
2013-7-6,80,58,37,39,33,28,81,45,17,30.07,30.04,30.01,10,10,10,23,4,30,0.00,0,,219
2013-7-7,82,60,39,37,33,32,81,46,16,30.16,30.10,30.07,10,10,10,21,3,32,0.00,0,,214
2013-7-8,82,62,41,37,35,27,87,48,15,30.30,30.22,30.16,10,10,10,17,3,24,0.00,0,,214
2013-7-9,80,58,37,36,32,28,81,44,17,30.35,30.32,30.30,10,10,10,15,3,24,0.00,0,,230
2013-7-10,82,60,37,37,34,30,87,47,16,30.34,30.26,30.20,10,10,8,22,4,31,0.00,0,,217
2013-7-11,77,60,44,39,31,21,71,41,14,30.20,30.17,30.13,19,10,10,21,3,31,0.00,1,,235
2013-7-12,77,56,35,32,29,25,75,44,14,30.20,30.17,30.10,10,10,10,18,3,25,0.00,0,,218
2013-7-13,77,54,32,36,30,19,81,47,12,30.26,30.21,30.18,10,10,7,16,3,24,0.00,0,,253
2013-7-14,80,58,35,54,36,32,87,52,18,30.28,30.24,30.18,10,10,8,15,3,23,0.00,0,,220
2013-7-15,80,60,41,41,38,32,87,53,17,30.21,30.14,30.05,10,10,10,15,3,23,0.00,1,,230
2013-7-16,77,60,44,39,35,23,81,50,13,30.24,30.14,30.08,10,10,10,20,3,29,0.00,1,,236
2013-7-17,82,57,32,37,31,16,87,48,9,30.34,30.29,30.24,10,10,10,16,3,22,0.00,0,,264
2013-7-18,89,63,37,43,37,25,87,51,11,30.34,30.29,30.21,10,10,10,17,2,23,0.00,0,,264
2013-7-19,91,66,41,43,39,27,93,50,10,30.27,30.22,30.15,10,10,10,17,3,21,0.00,0,,231
2013-7-20,93,70,46,52,42,32,76,49,11,30.21,30.15,30.00,10,10,10,14,2,33,0.00,0,,228
2013-7-21,93,70,46,54,45,32,93,55,12,30.19,30.14,30.09,10,10,10,16,3,22,0.00,0,,259
2013-7-22,87,68,48,48,43,39,82,53,23,30.28,30.22,30.18,10,10,10,16,4,25,0.00,1,,250
2013-7-23,77,62,48,46,42,36,71,48,22,30.28,30.26,30.22,10,10,10,13,4,17,0.00,3,,295
2013-7-24,82,63,44,48,46,41,87,57,26,30.27,30.25,30.22,10,10,10,14,4,21,0.00,1,,222
2013-7-25,86,66,46,55,50,45,94,72,23,30.37,30.31,30.25,10,10,10,13,2,30,0.00,2,Thunderstorm,150
2013-7-26,84,66,48,55,49,45,100,67,26,30.38,30.34,30.30,10,9,0,16,3,21,0.00,2,Fog,226
2013-7-27,82,62,41,46,42,27,93,59,15,30.36,30.25,30.15,10,10,10,15,3,25,0.00,0,,229
2013-7-28,82,62,41,45,38,32,93,53,17,30.18,30.13,30.06,10,10,10,15,3,23,0.00,0,,227
2013-7-29,78,58,37,36,33,28,87,49,18,30.26,30.17,30.12,10,10,10,20,3,25,0.00,0,,204
2013-7-30,78,58,37,36,33,27,81,47,15,30.33,30.29,30.23,10,10,10,15,4,22,0.00,1,,232
2013-7-31,77,62,46,37,35,32,71,46,21,30.33,30.27,30.22,10,10,10,18,3,29,0.00,3,,220